Latest Coastal Weather Observations for South Johnstone

IDQ60701

Issued at 2:22 am EST Friday 5 March 2021 (issued every 10 minutes, with the page automatically refreshed every 10 minutes)

About coastal observations | Map of coastal stations | Coastal observations for QLD | Marine services | Other Formats
Station Details ID: 032037 Name: SOUTH JOHNSTONE EXP STN Lat: -17.61 Lon: 146.00 Height: 18.3 m
Data from the previous 72 hours. | See also: Recent months at South Johnstone
Date/Time
EST
Wind Sea
Height
m
Swell Vis
km
Cloud Weather Temp
°C
Press
MSL
hPa
Rain since
9am
mm
Dir  Spd
kts
Gust
kts
Height
m
Period
s
Dir
05/02:00am S 5 10 - - - - - - - 26.2 - 0.2
05/01:30am S 4 8 - - - - - - - 25.9 - 0.2
05/01:00am CALM 0 3 - - - - - - - 25.1 - 0.2
05/12:30am SSW 1 4 - - - - - - - 24.3 - 0.2
05/12:00am CALM 0 0 - - - - - - - 24.0 1005.8 0.2
 
Date/Time
EST
Wind Sea
Height
m
Swell Vis
km
Cloud Weather Temp
°C
Press
MSL
hPa
Rain since
9am
mm
Dir  Spd
kts
Gust
kts
Height
m
Period
s
Dir
04/11:30pm CALM 0 2 - - - - - - - 24.0 - 0.2
04/11:00pm W 4 9 - - - - - - - 23.9 - 0.2
04/10:30pm W 4 7 - - - - - - - 24.0 - 0.2
04/10:00pm WNW 2 4 - - - - - - - 24.1 - 0.2
04/09:30pm CALM 0 1 - - - - - - - 24.2 - 0.2
04/09:00pm CALM 0 3 - - - - - - - 24.5 1004.8 0.2
04/08:30pm CALM 0 2 - - - - - - - 24.8 - 0.2
04/08:00pm S 2 5 - - - - - - - 25.6 - 0.2
04/07:30pm SSE 2 4 - - - - - - - 26.1 - 0.2
04/07:00pm S 5 7 - - - - - - - 27.5 - 0.2
04/06:30pm S 6 10 - - - - - - - 28.3 - 0.2
04/06:00pm S 5 7 - - - - - - - 28.5 1002.8 0.2
04/05:30pm SSE 5 10 - - - - - - - 29.3 - 0.2
04/05:00pm SSE 7 11 - - - - - - - 29.8 - 0.2
04/04:30pm S 8 13 - - - - - - - 30.3 - 0.2
04/04:00pm S 9 15 - - - - - - - 30.5 - 0.2
04/03:30pm SSE 11 19 - - - - - - - 30.6 - 0.2
04/03:00pm SSE 9 16 - - - - - - - 31.7 1002.1 0.2
04/02:30pm SSE 10 20 - - - - - - - 31.2 - 0.2
04/02:00pm S 10 16 - - - - - - - 31.8 - 0.2
04/01:30pm SSE 11 17 - - - - - - - 31.4 - 0.2
04/01:00pm S 8 15 - - - - - - - 30.9 - 0.2
04/12:30pm S 7 17 - - - - - - - 31.2 - 0.2
04/12:00pm S 8 15 - - - - - - - 30.6 1003.2 0.2
04/11:30am S 9 18 - - - - - - - 30.3 - 0.2
04/11:00am S 8 13 - - - - - - - 29.4 - 0.0
04/10:30am S 8 14 - - - - - - - 28.9 - 0.0
04/10:00am S 8 14 - - - - - - - 28.4 - 0.0
04/09:30am S 6 10 - - - - - - - 28.5 - 0.0
04/09:00am S 7 14 - - - - - - - 28.3 1004.1 1.4
04/08:30am S 7 11 - - - - - - - 28.2 - 1.4
04/08:00am SSW 7 11 - - - - - - - 27.2 - 1.4
04/07:30am SSW 7 11 - - - - - - - 27.0 - 1.4
04/07:00am S 6 10 - - - - - - - 26.6 - 1.2
04/06:30am SSW 6 10 - - - - - - - 26.6 - 1.2
04/06:00am SSW 6 11 - - - - - - - 26.5 1002.8 1.2
04/05:30am SSW 8 13 - - - - - - - 26.6 - 1.2
04/05:00am SSW 8 12 - - - - - - - 26.7 - 1.2
04/04:30am S 6 10 - - - - - - - 26.7 - 1.2
04/04:00am SSW 6 9 - - - - - - - 26.7 - 1.2
04/03:30am SSW 7 12 - - - - - - - 27.0 - 1.2
04/03:00am SSW 6 9 - - - - - - - 26.9 1002.1 1.0
04/02:30am SSW 8 13 - - - - - - - 26.9 - 1.0
04/02:00am SSW 7 11 - - - - - - - 27.0 - 1.0
04/01:30am S 7 13 - - - - - - - 27.2 - 1.0
04/01:00am SSW 8 14 - - - - - - - 27.4 - 1.0
04/12:30am S 7 10 - - - - - - - 27.4 - 1.0
04/12:00am S 6 10 - - - - - - - 27.6 1003.3 1.0
 
Date/Time
EST
Wind Sea
Height
m
Swell Vis
km
Cloud Weather Temp
°C
Press
MSL
hPa
Rain since
9am
mm
Dir  Spd
kts
Gust
kts
Height
m
Period
s
Dir
03/11:30pm SSW 6 10 - - - - - - - 27.4 - 1.0
03/11:00pm SSW 6 10 - - - - - - - 27.5 - 0.8
03/10:30pm SSW 8 14 - - - - - - - 27.7 - 0.8
03/10:00pm S 8 13 - - - - - - - 27.7 - 0.8
03/09:30pm S 8 12 - - - - - - - 27.8 - 0.8
03/09:00pm S 7 14 - - - - - - - 27.7 1004.2 0.8
03/08:30pm S 8 13 - - - - - - - 27.9 - 0.8
03/08:00pm S 8 15 - - - - - - - 27.8 - 0.8
03/07:30pm SSW 8 12 - - - - - - - 28.1 - 0.8
03/07:00pm S 8 14 - - - - - - - 28.1 - 0.6
03/06:30pm SSW 7 13 - - - - - - - 28.1 - 0.6
03/06:00pm S 6 10 - - - - - - - 28.3 1002.4 0.6
03/05:30pm S 6 11 - - - - - - - 28.6 - 0.6
03/05:00pm SSE 9 13 - - - - - - - 29.0 - 0.6
03/04:30pm S 8 13 - - - - - - - 29.3 - 0.6
03/04:00pm S 8 14 - - - - - - - 29.9 - 0.4
03/03:30pm S 8 17 - - - - - - - 30.5 - 0.4
03/03:00pm S 9 15 - - - - - - - 29.4 1002.2 0.4
03/02:30pm S 8 13 - - - - - - - 29.0 - 0.4
03/02:00pm S 10 16 - - - - - - - 29.3 - 0.4
03/01:30pm S 10 17 - - - - - - - 29.3 - 0.4
03/01:00pm S 10 18 - - - - - - - 29.6 - 0.2
03/12:30pm S 10 17 - - - - - - - 29.6 - 0.2
03/12:00pm S 10 20 - - - - - - - 29.2 1004.3 0.2
03/11:30am S 8 15 - - - - - - - 29.4 - 0.2
03/11:00am S 7 13 - - - - - - - 29.0 - 0.2
03/10:30am S 8 13 - - - - - - - 28.5 - 0.2
03/10:00am S 6 12 - - - - - - - 27.8 - 0.0
03/09:30am SSW 8 15 - - - - - - - 27.5 - 0.0
03/09:00am SSW 7 12 - - - - - - - 27.1 1005.1 3.8
03/08:30am S 9 14 - - - - - - - 26.9 - 3.8
03/08:00am S 8 11 - - - - - - - 26.9 - 3.8
03/07:30am S 8 13 - - - - - - - 26.6 - 3.6
03/07:00am S 7 13 - - - - - - - 26.6 - 3.6
03/06:30am SSW 9 14 - - - - - - - 26.6 - 3.6
03/06:00am SSW 9 16 - - - - - - - 26.5 1003.6 3.6
03/05:30am SSW 8 15 - - - - - - - 26.4 - 3.6
03/05:00am S 10 15 - - - - - - - 26.5 - 3.6
03/04:30am S 7 13 - - - - - - - 26.3 - 3.6
03/04:00am SSW 7 11 - - - - - - - 26.2 - 3.4
03/03:30am SSW 9 13 - - - - - - - 26.6 - 3.4
03/03:00am SSW 8 11 - - - - - - - 26.5 1002.8 3.4
03/02:30am SSW 7 10 - - - - - - - 26.3 - 3.4
03/02:00am SSW 7 11 - - - - - - - 26.1 - 3.4
03/01:30am SSW 8 13 - - - - - - - 26.0 - 3.2
03/01:00am SSW 6 11 - - - - - - - 25.7 - 3.2
03/12:30am S 7 11 - - - - - - - 25.8 - 3.2
03/12:00am SSW 8 12 - - - - - - - 25.8 1005.1 3.2
 
Date/Time
EST
Wind Sea
Height
m
Swell Vis
km
Cloud Weather Temp
°C
Press
MSL
hPa
Rain since
9am
mm
Dir  Spd
kts
Gust
kts
Height
m
Period
s
Dir
02/11:30pm SSW 7 12 - - - - - - - 26.4 - 3.2
02/11:00pm SSW 7 15 - - - - - - - 26.6 - 3.0
02/10:30pm SSW 6 9 - - - - - - - 26.4 - 3.0
02/10:00pm SW 5 7 - - - - - - - 25.8 - 3.0
02/09:30pm SW 5 9 - - - - - - - 25.8 - 2.8
02/09:00pm S 4 7 - - - - - - - 26.1 1004.9 2.8
02/08:30pm SSW 5 10 - - - - - - - 26.0 - 2.8
02/08:00pm SE 5 10 - - - - - - - 25.5 - 2.8
02/07:30pm SSE 6 13 - - - - - - - 25.9 - 2.6
02/07:00pm SSE 8 16 - - - - - - - 25.8 - 2.6
02/06:30pm S 7 13 - - - - - - - 26.3 - 2.4
02/06:00pm S 6 12 - - - - - - - 26.4 1003.4 2.4
02/05:30pm S 6 11 - - - - - - - 26.7 - 2.2
02/05:00pm S 8 12 - - - - - - - 26.3 - 2.2
02/04:30pm SSE 7 14 - - - - - - - 26.5 - 2.0
02/04:00pm SSE 11 19 - - - - - - - 26.9 - 2.0
02/03:30pm S 8 16 - - - - - - - 28.6 - 1.8
02/03:00pm S 5 9 - - - - - - - 28.2 1002.5 1.6
02/02:30pm S 8 13 - - - - - - - 29.0 - 1.6
02/02:00pm S 8 14 - - - - - - - 29.3 - 1.4
02/01:30pm S 9 14 - - - - - - - 29.7 - 1.2
02/01:00pm SSW 9 17 - - - - - - - 28.7 - 1.0
02/12:30pm SSW 8 12 - - - - - - - 28.4 - 1.0
02/12:00pm SSW 7 11 - - - - - - - 27.6 1004.1 0.8
02/11:30am SSW 8 15 - - - - - - - 27.0 - 0.6
02/11:00am S 8 14 - - - - - - - 26.8 - 0.4
02/10:30am S 8 16 - - - - - - - 26.4 - 0.4
02/10:00am SSW 7 12 - - - - - - - 25.3 - 0.2
02/09:30am SSW 8 15 - - - - - - - 24.6 - 0.2
02/09:00am SSW 8 13 - - - - - - - 24.1 1005.4 11.2
02/08:30am SSW 8 14 - - - - - - - 23.9 - 11.0
02/08:00am S 8 14 - - - - - - - 23.8 - 10.8
02/07:30am S 8 12 - - - - - - - 23.5 - 10.6
02/07:00am SSW 7 12 - - - - - - - 23.5 - 10.4
02/06:30am S 9 15 - - - - - - - 23.9 - 10.2
02/06:00am S 8 12 - - - - - - - 23.9 1003.7 10.0
02/05:30am SSW 7 10 - - - - - - - 24.4 - 9.8
02/05:00am SW 8 13 - - - - - - - 24.4 - 9.6
02/04:30am SSW 9 14 - - - - - - - 24.5 - 9.4
02/04:00am SSW 11 18 - - - - - - - 24.6 - 9.2
02/03:30am SSW 11 25 - - - - - - - 24.4 - 9.0
02/03:00am SSW 9 20 - - - - - - - 24.4 1002.9 8.8
02/02:30am SSW 5 9 - - - - - - - 23.7 - 8.6

Other formats

Comma delimited format used in spreadsheet applications
http://www.bom.gov.au/fwo/IDQ60701/IDQ60701.95292.axf

JavaScript Object Notation format (JSON) in row-major order
http://www.bom.gov.au/fwo/IDQ60701/IDQ60701.95292.json

Data quality

Most of these data are generated automatically and are frequently updated. Quality checks on data are not normally performed. It is possible for incorrect values to appear. Refer to information at About Latest Weather Observations and please check the disclaimer before using these data.